Terminal Aerodrome Forecast
Issued by NWS Sterling, VA

Home | Current Version | Previous Version | Text Only | Print | Product List | Glossary On
Versions: 1 2 3 4 5 6 7 8 9 10 11 12 13 14 15 16 17 18 19 20 21 22 23 24
279
FTUS41 KLWX 061727
TAFBWI
TAF
KBWI 061727Z 0618/0724 33007KT 3SM RA OVC015
     FM062100 33005KT 3SM -SHRA OVC015
     FM070300 31004KT P6SM OVC008
     FM070900 01004KT P6SM OVC008
     FM071300 34005KT P6SM OVC015
     FM072000 25005KT P6SM BKN045
     FM072300 17005KT P6SM BKN150=

USA.gov is the U.S. government's official web portal to all federal, state and local government web resources and services.